Time;durP1;ratioP1;P1;durP2;ratioP2;P2;SDS_P1;SDS_P2;PMS_P1;PMS_P2;Temp;Humidity;BMP_temperature;BMP_pressure;BME280_temperature;BME280_humidity;BME280_pressure;Samples;Min_cycle;Max_cycle;Signal;HPM_P1;HPM_P2
2023/06/04 12:18:50;;;;;;;1.55;1.45;;;;;;;;;;7391926;19;20591;-89
2023/06/04 12:21:21;;;;;;;1.05;1.05;;;;;;;;;;7387228;19;20173;-89
2023/06/04 12:23:48;;;;;;;1.10;1.10;;;;;;;;;;7389037;19;20133;-87
2023/06/04 12:26:37;;;;;;;1.33;1.25;;;;;;;;;;7388724;19;20147;-87
2023/06/04 12:29:14;;;;;;;0.73;0.73;;;;;;;;;;7395124;19;20144;-88
2023/06/04 12:31:46;;;;;;;1.02;1.02;;;;;;;;;;7390885;19;20240;-86
2023/06/04 12:34:14;;;;;;;0.65;0.65;;;;;;;;;;7399503;19;20144;-88
2023/06/04 12:36:40;;;;;;;1.67;1.20;;;;;;;;;;7392541;19;20476;-88
2023/06/04 12:39:07;;;;;;;1.45;1.35;;;;;;;;;;7390348;19;20176;-87
2023/06/04 12:41:37;;;;;;;0.75;0.75;;;;;;;;;;7384180;19;20159;-87
2023/06/04 12:44:59;;;;;;;1.08;1.08;;;;;;;;;;7398244;19;20155;-89
2023/06/04 12:58:32;;;;;;;1.20;1.17;;;;;;;;;;7398122;19;20146;-91
2023/06/04 13:01:17;;;;;;;1.02;1.02;;;;;;;;;;7396276;19;20197;-90
2023/06/04 13:03:51;;;;;;;3.75;1.02;;;;;;;;;;7398290;19;20148;-90
2023/06/04 13:06:20;;;;;;;1.48;0.90;;;;;;;;;;7404832;19;20504;-91
2023/06/04 13:09:01;;;;;;;1.38;1.27;;;;;;;;;;7401128;19;20141;-90
2023/06/04 13:11:31;;;;;;;1.25;0.93;;;;;;;;;;7395188;19;20183;-88
2023/06/04 13:13:58;;;;;;;0.60;0.60;;;;;;;;;;7397266;19;20589;-88
2023/06/04 13:16:25;;;;;;;0.85;0.85;;;;;;;;;;7400799;19;20137;-85
2023/06/04 13:18:52;;;;;;;1.00;1.00;;;;;;;;;;7402641;19;20144;-86
2023/06/04 13:21:37;;;;;;;1.20;1.15;;;;;;;;;;7400289;19;20178;-87
2023/06/04 13:24:07;;;;;;;0.70;0.70;;;;;;;;;;7401160;19;20140;-88
2023/06/04 13:26:38;;;;;;;0.55;0.55;;;;;;;;;;7399586;19;20154;-90
2023/06/04 13:29:05;;;;;;;1.08;1.08;;;;;;;;;;7396761;19;20220;-90
2023/06/04 13:31:32;;;;;;;0.95;0.95;;;;;;;;;;7398736;19;20177;-89
2023/06/04 13:33:59;;;;;;;1.30;1.25;;;;;;;;;;7400768;19;20831;-90
2023/06/04 13:36:40;;;;;;;0.98;0.98;;;;;;;;;;7400264;19;20248;-88
2023/06/04 13:39:07;;;;;;;0.68;0.68;;;;;;;;;;7396982;19;20133;-87
2023/06/04 13:41:33;;;;;;;0.82;0.80;;;;;;;;;;7397075;19;20224;-87
2023/06/04 13:44:00;;;;;;;0.95;0.93;;;;;;;;;;7400164;19;20581;-87
2023/06/04 13:46:27;;;;;;;1.20;1.20;;;;;;;;;;7398389;19;20159;-87
2023/06/04 13:48:54;;;;;;;0.93;0.93;;;;;;;;;;7399217;19;20158;-87
2023/06/04 13:51:21;;;;;;;1.35;1.25;;;;;;;;;;7399534;19;20153;-87
2023/06/04 13:53:53;;;;;;;1.15;1.15;;;;;;;;;;7403189;19;20153;-87
2023/06/04 13:56:20;;;;;;;0.68;0.68;;;;;;;;;;7399908;19;20220;-88
2023/06/04 13:58:46;;;;;;;0.65;0.65;;;;;;;;;;7401016;19;20165;-87
2023/06/04 14:01:13;;;;;;;1.00;1.00;;;;;;;;;;7401057;19;20172;-90
2023/06/04 14:03:40;;;;;;;1.38;1.02;;;;;;;;;;7404391;19;20121;-88
2023/06/04 14:06:07;;;;;;;0.65;0.65;;;;;;;;;;7404015;19;20153;-87
2023/06/04 14:08:34;;;;;;;0.70;0.70;;;;;;;;;;7403788;19;20132;-87
2023/06/04 14:11:01;;;;;;;0.95;0.90;;;;;;;;;;7402125;19;20196;-88
2023/06/04 14:13:28;;;;;;;1.02;1.00;;;;;;;;;;7402723;19;20616;-89
2023/06/04 14:15:55;;;;;;;0.90;0.90;;;;;;;;;;7400705;19;20493;-88
2023/06/04 14:18:22;;;;;;;1.00;1.00;;;;;;;;;;7404280;19;20552;-88
2023/06/04 14:20:49;;;;;;;1.17;1.08;;;;;;;;;;7403401;19;20148;-88
2023/06/04 14:23:17;;;;;;;1.08;0.65;;;;;;;;;;7403071;19;20145;-89
2023/06/04 14:25:43;;;;;;;1.10;1.10;;;;;;;;;;7402053;19;20154;-88
2023/06/04 14:28:10;;;;;;;1.48;1.38;;;;;;;;;;7403666;19;20129;-88
2023/06/04 14:30:37;;;;;;;0.95;0.95;;;;;;;;;;7402400;19;20160;-88
2023/06/04 14:33:03;;;;;;;1.50;1.30;;;;;;;;;;7402513;19;20208;-88
2023/06/04 14:35:30;;;;;;;0.70;0.70;;;;;;;;;;7401852;19;20145;-88
2023/06/04 14:37:57;;;;;;;0.77;0.73;;;;;;;;;;7402118;19;20616;-88
2023/06/04 14:40:24;;;;;;;0.65;0.65;;;;;;;;;;7402749;19;20165;-88
2023/06/04 14:42:51;;;;;;;0.98;0.98;;;;;;;;;;7400610;19;20224;-88
2023/06/04 14:45:48;;;;;;;1.45;1.33;;;;;;;;;;7399444;19;20136;-89
2023/06/04 14:48:42;;;;;;;0.75;0.75;;;;;;;;;;7399981;19;20184;-88
2023/06/04 14:51:10;;;;;;;0.90;0.90;;;;;;;;;;7399469;19;20677;-88
2023/06/04 14:53:39;;;;;;;1.17;0.90;;;;;;;;;;7399381;19;20157;-88
2023/06/04 14:56:06;;;;;;;0.50;0.50;;;;;;;;;;7400152;19;20148;-87
2023/06/04 14:58:33;;;;;;;0.80;0.80;;;;;;;;;;7400028;19;20532;-87
2023/06/04 15:01:03;;;;;;;1.38;1.23;;;;;;;;;;7398591;19;20184;-86
2023/06/04 15:03:30;;;;;;;0.85;0.85;;;;;;;;;;7400892;19;20212;-88
2023/06/04 15:05:57;;;;;;;1.70;0.65;;;;;;;;;;7402235;19;20277;-88
2023/06/04 15:08:43;;;;;;;1.45;1.08;;;;;;;;;;7401816;19;20514;-88
2023/06/04 15:11:11;;;;;;;1.02;0.93;;;;;;;;;;7402732;19;20180;-87
2023/06/04 15:13:38;;;;;;;0.68;0.68;;;;;;;;;;7401816;19;20152;-86
2023/06/04 15:16:04;;;;;;;1.13;1.02;;;;;;;;;;7403103;19;20152;-87
2023/06/04 15:18:31;;;;;;;0.68;0.68;;;;;;;;;;7401876;19;20165;-87
2023/06/04 15:20:58;;;;;;;0.95;0.93;;;;;;;;;;7401810;19;20153;-88
2023/06/04 15:23:25;;;;;;;0.80;0.77;;;;;;;;;;7404561;19;20156;-87
2023/06/04 15:25:51;;;;;;;2.10;1.40;;;;;;;;;;7401790;19;20167;-88
2023/06/04 15:28:18;;;;;;;0.38;0.38;;;;;;;;;;7400354;19;20237;-88
2023/06/04 15:30:45;;;;;;;1.10;1.00;;;;;;;;;;7396943;19;20173;-87
2023/06/04 15:33:12;;;;;;;3.35;0.68;;;;;;;;;;7397901;19;20136;-86
2023/06/04 15:39:15;;;;;;;0.77;0.77;;;;;;;;;;7396259;19;20160;-87
2023/06/04 15:49:17;;;;;;;1.48;1.38;;;;;;;;;;7392487;19;20236;-87
2023/06/04 15:55:55;;;;;;;1.27;0.88;;;;;;;;;;7395471;19;20492;-87
2023/06/04 15:59:03;;;;;;;0.70;0.70;;;;;;;;;;7395466;19;20149;-88
2023/06/04 16:20:32;;;;;;;0.55;0.55;;;;;;;;;;7428449;19;20151;-86
2023/06/04 16:23:51;;;;;;;1.30;1.20;;;;;;;;;;7425954;19;20162;-86
2023/06/04 16:30:45;;;;;;;1.48;1.23;;;;;;;;;;7409986;19;20124;-88
2023/06/04 16:37:09;;;;;;;1.20;1.10;;;;;;;;;;7408300;19;20140;-87
2023/06/04 16:39:36;;;;;;;1.10;1.10;;;;;;;;;;7401453;19;20161;-88
2023/06/04 17:05:17;;;;;;;0.55;0.55;;;;;;;;;;7402420;19;20144;-87
2023/06/04 17:08:33;;;;;;;0.70;0.70;;;;;;;;;;7398756;19;20171;-87
2023/06/04 17:11:09;;;;;;;2.47;1.50;;;;;;;;;;7403648;19;20172;-87
2023/06/04 17:14:25;;;;;;;1.95;0.82;;;;;;;;;;7399348;19;20141;-88
2023/06/04 17:17:34;;;;;;;1.00;0.90;;;;;;;;;;7397385;19;20166;-88
2023/06/04 17:20:01;;;;;;;0.70;0.70;;;;;;;;;;7401006;19;21585;-87
2023/06/04 17:22:28;;;;;;;1.25;1.23;;;;;;;;;;7400352;19;20213;-87
2023/06/04 17:24:54;;;;;;;1.00;1.00;;;;;;;;;;7403223;19;20136;-87
2023/06/04 17:27:21;;;;;;;1.23;1.15;;;;;;;;;;7402429;19;20232;-87
2023/06/04 17:29:49;;;;;;;1.00;1.00;;;;;;;;;;7397530;19;20137;-87
2023/06/04 17:32:15;;;;;;;0.90;0.90;;;;;;;;;;7402801;19;20152;-87
2023/06/04 17:34:42;;;;;;;0.95;0.95;;;;;;;;;;7399237;19;20881;-87
2023/06/04 17:37:09;;;;;;;1.48;0.80;;;;;;;;;;7400332;19;20243;-89
2023/06/04 17:39:36;;;;;;;1.13;0.60;;;;;;;;;;7403369;19;20491;-88
2023/06/04 17:42:02;;;;;;;0.65;0.65;;;;;;;;;;7400471;19;20145;-88
2023/06/04 17:44:29;;;;;;;0.50;0.50;;;;;;;;;;7399567;19;20130;-88
2023/06/04 17:46:59;;;;;;;0.70;0.70;;;;;;;;;;7397968;19;20144;-89
2023/06/04 17:49:26;;;;;;;1.95;1.45;;;;;;;;;;7396456;19;20258;-89
2023/06/04 17:51:52;;;;;;;3.38;0.85;;;;;;;;;;7394597;19;20173;-89
2023/06/04 17:54:25;;;;;;;0.85;0.85;;;;;;;;;;7403291;19;20159;-86
2023/06/04 17:57:26;;;;;;;2.28;1.75;;;;;;;;;;7400204;19;20140;-87
2023/06/04 18:00:01;;;;;;;0.90;0.90;;;;;;;;;;7397313;19;20167;-87
2023/06/04 18:02:28;;;;;;;1.00;1.00;;;;;;;;;;7399958;19;20144;-86
2023/06/04 18:04:58;;;;;;;1.15;1.15;;;;;;;;;;7396015;19;20527;-87
2023/06/04 18:07:25;;;;;;;1.27;0.93;;;;;;;;;;7393231;19;20189;-88
2023/06/04 18:09:52;;;;;;;2.30;1.20;;;;;;;;;;7393816;19;20220;-87
2023/06/04 18:12:18;;;;;;;0.70;0.70;;;;;;;;;;7394488;19;20209;-87
2023/06/04 18:14:51;;;;;;;0.68;0.68;;;;;;;;;;7391943;19;20149;-88
2023/06/04 18:17:50;;;;;;;0.98;0.82;;;;;;;;;;7396462;19;20140;-86
2023/06/04 18:20:21;;;;;;;0.63;0.63;;;;;;;;;;7396904;19;20190;-88
2023/06/04 18:22:48;;;;;;;0.60;0.60;;;;;;;;;;7391885;19;20500;-87
2023/06/04 18:25:15;;;;;;;0.80;0.80;;;;;;;;;;7402096;19;20161;-90
2023/06/04 18:27:42;;;;;;;0.60;0.60;;;;;;;;;;7405493;19;20145;-89
2023/06/04 18:30:09;;;;;;;0.90;0.90;;;;;;;;;;7398984;19;20152;-89
2023/06/04 18:32:36;;;;;;;1.55;1.25;;;;;;;;;;7395975;19;20144;-89
2023/06/04 18:35:03;;;;;;;0.85;0.85;;;;;;;;;;7396162;19;20137;-90
2023/06/04 18:37:30;;;;;;;1.70;0.73;;;;;;;;;;7395426;19;20156;-89
2023/06/04 18:39:56;;;;;;;0.93;0.93;;;;;;;;;;7396332;19;20150;-89
2023/06/04 18:42:23;;;;;;;0.60;0.60;;;;;;;;;;7393497;19;20132;-90
2023/06/04 18:44:57;;;;;;;0.63;0.63;;;;;;;;;;7395586;19;20141;-90
2023/06/04 18:47:24;;;;;;;1.05;0.90;;;;;;;;;;7389545;19;20159;-90
2023/06/04 18:49:51;;;;;;;0.70;0.70;;;;;;;;;;7390129;19;20144;-89
2023/06/04 18:52:18;;;;;;;0.70;0.70;;;;;;;;;;7392962;19;20472;-89
2023/06/04 18:54:44;;;;;;;1.95;1.02;;;;;;;;;;7395287;19;20136;-89
2023/06/04 18:57:13;;;;;;;0.77;0.77;;;;;;;;;;7394202;19;20137;-90
2023/06/04 18:59:40;;;;;;;1.08;1.08;;;;;;;;;;7391063;19;20159;-90
2023/06/04 19:02:07;;;;;;;0.40;0.40;;;;;;;;;;7390976;19;20149;-88
2023/06/04 19:04:34;;;;;;;0.57;0.57;;;;;;;;;;7396858;19;20145;-88
2023/06/04 19:07:02;;;;;;;1.00;0.90;;;;;;;;;;7394318;19;20137;-89
2023/06/04 19:09:28;;;;;;;1.08;0.98;;;;;;;;;;7392665;19;20132;-89
2023/06/04 19:11:55;;;;;;;0.85;0.85;;;;;;;;;;7396383;19;20208;-89
2023/06/04 19:14:22;;;;;;;2.03;1.77;;;;;;;;;;7398274;19;20879;-89
2023/06/04 19:16:50;;;;;;;0.50;0.50;;;;;;;;;;7396708;19;20700;-88
2023/06/04 19:19:19;;;;;;;0.85;0.70;;;;;;;;;;7400193;19;20144;-89
2023/06/04 19:21:47;;;;;;;0.70;0.70;;;;;;;;;;7399193;19;20634;-89
2023/06/04 19:24:14;;;;;;;0.68;0.68;;;;;;;;;;7399445;19;20494;-89
2023/06/04 19:26:41;;;;;;;0.75;0.75;;;;;;;;;;7396254;19;20225;-88
2023/06/04 19:29:10;;;;;;;1.02;1.00;;;;;;;;;;7393585;19;20143;-88
2023/06/04 19:31:37;;;;;;;0.75;0.75;;;;;;;;;;7390331;19;20176;-88
2023/06/04 19:34:04;;;;;;;2.45;0.77;;;;;;;;;;7395484;19;20141;-87
2023/06/04 19:36:30;;;;;;;0.95;0.95;;;;;;;;;;7393550;19;20480;-87
2023/06/04 19:38:58;;;;;;;0.88;0.88;;;;;;;;;;7393101;19;20603;-87
2023/06/04 19:41:27;;;;;;;6.65;1.25;;;;;;;;;;7388403;19;20216;-87
2023/06/04 19:43:54;;;;;;;0.65;0.65;;;;;;;;;;7391927;19;20148;-87
2023/06/04 19:46:21;;;;;;;0.60;0.60;;;;;;;;;;7390472;19;20140;-87
2023/06/04 19:48:48;;;;;;;0.90;0.90;;;;;;;;;;7391468;19;20738;-87
2023/06/04 19:51:15;;;;;;;1.17;1.13;;;;;;;;;;7391938;19;20153;-87
2023/06/04 19:53:41;;;;;;;0.95;0.93;;;;;;;;;;7398495;19;20471;-87
2023/06/04 19:56:08;;;;;;;0.50;0.50;;;;;;;;;;7397869;19;20137;-87
2023/06/04 19:58:35;;;;;;;0.63;0.63;;;;;;;;;;7401534;19;20137;-87
2023/06/04 20:01:02;;;;;;;0.90;0.90;;;;;;;;;;7398148;19;20161;-87
2023/06/04 20:03:31;;;;;;;0.82;0.82;;;;;;;;;;7396849;19;20465;-88
2023/06/04 20:05:57;;;;;;;0.77;0.77;;;;;;;;;;7398135;19;20133;-87
2023/06/04 20:08:25;;;;;;;0.80;0.80;;;;;;;;;;7400605;19;20232;-87
2023/06/04 20:10:52;;;;;;;1.05;0.90;;;;;;;;;;7398068;19;20153;-87
2023/06/04 20:13:19;;;;;;;0.98;0.90;;;;;;;;;;7402393;19;20185;-87
2023/06/04 20:15:46;;;;;;;0.88;0.88;;;;;;;;;;7403556;19;20153;-88
2023/06/04 20:18:13;;;;;;;1.05;1.05;;;;;;;;;;7405503;19;20859;-88
2023/06/04 20:20:40;;;;;;;1.00;1.00;;;;;;;;;;7400301;19;20161;-87
2023/06/04 20:23:06;;;;;;;0.73;0.73;;;;;;;;;;7399659;19;20137;-88
2023/06/04 20:25:33;;;;;;;0.85;0.85;;;;;;;;;;7405960;19;20153;-87
2023/06/04 20:28:00;;;;;;;0.65;0.65;;;;;;;;;;7400117;19;20609;-87
2023/06/04 20:30:27;;;;;;;0.80;0.80;;;;;;;;;;7400383;19;20164;-88
2023/06/04 20:32:58;;;;;;;0.65;0.65;;;;;;;;;;7400761;19;20137;-88
2023/06/04 20:35:41;;;;;;;0.70;0.70;;;;;;;;;;7400421;19;20155;-87
2023/06/04 20:38:08;;;;;;;0.77;0.77;;;;;;;;;;7397875;19;20129;-88
2023/06/04 20:40:34;;;;;;;0.30;0.30;;;;;;;;;;7401654;19;20148;-87
2023/06/04 20:43:01;;;;;;;1.13;1.13;;;;;;;;;;7401270;19;20185;-87
2023/06/04 20:45:28;;;;;;;1.00;0.80;;;;;;;;;;7400389;19;20622;-87
2023/06/04 20:47:55;;;;;;;1.27;0.63;;;;;;;;;;7400244;19;20139;-86
2023/06/04 20:50:22;;;;;;;0.80;0.80;;;;;;;;;;7397407;19;20184;-87
2023/06/04 20:52:49;;;;;;;0.77;0.77;;;;;;;;;;7396079;19;20133;-86
2023/06/04 20:55:16;;;;;;;0.60;0.60;;;;;;;;;;7396155;19;20437;-87
2023/06/04 20:57:43;;;;;;;0.90;0.90;;;;;;;;;;7398644;19;20137;-87
2023/06/04 21:00:10;;;;;;;0.82;0.82;;;;;;;;;;7397274;19;20185;-87
2023/06/04 21:03:18;;;;;;;0.50;0.47;;;;;;;;;;7394676;19;20137;-86
2023/06/04 21:05:45;;;;;;;0.85;0.85;;;;;;;;;;7398193;19;20628;-88
2023/06/04 21:08:12;;;;;;;0.50;0.50;;;;;;;;;;7402167;19;20227;-89
2023/06/04 21:10:39;;;;;;;1.38;0.70;;;;;;;;;;7402774;19;20168;-89
2023/06/04 21:13:05;;;;;;;0.70;0.70;;;;;;;;;;7406360;19;20136;-88
2023/06/04 21:15:32;;;;;;;1.05;0.82;;;;;;;;;;7401469;19;20140;-89
2023/06/04 21:17:59;;;;;;;1.05;0.98;;;;;;;;;;7401117;19;20628;-87
2023/06/04 21:20:26;;;;;;;0.73;0.73;;;;;;;;;;7400040;19;20172;-88
2023/06/04 21:22:52;;;;;;;0.88;0.80;;;;;;;;;;7402050;19;20141;-88
2023/06/04 21:25:19;;;;;;;0.82;0.82;;;;;;;;;;7400912;19;20129;-89
2023/06/04 21:27:46;;;;;;;1.80;0.73;;;;;;;;;;7400790;19;20133;-89
2023/06/04 21:30:16;;;;;;;0.93;0.93;;;;;;;;;;7400193;19;20172;-89
2023/06/04 21:32:45;;;;;;;0.68;0.68;;;;;;;;;;7397823;19;20133;-89
2023/06/04 21:35:12;;;;;;;0.40;0.40;;;;;;;;;;7396716;19;20506;-89
2023/06/04 21:37:38;;;;;;;0.88;0.85;;;;;;;;;;7398491;19;20593;-89
2023/06/04 21:40:06;;;;;;;0.65;0.65;;;;;;;;;;7393577;19;20144;-89
2023/06/04 21:42:35;;;;;;;0.60;0.50;;;;;;;;;;7396824;19;20145;-88
2023/06/04 21:45:02;;;;;;;1.08;1.08;;;;;;;;;;7400781;19;20139;-90
2023/06/04 21:47:29;;;;;;;1.02;1.02;;;;;;;;;;7401981;19;20151;-89
2023/06/04 21:49:58;;;;;;;0.47;0.47;;;;;;;;;;7400261;19;20137;-89
2023/06/04 21:52:25;;;;;;;0.50;0.50;;;;;;;;;;7400644;19;20125;-89
2023/06/04 21:54:52;;;;;;;1.95;1.70;;;;;;;;;;7399381;19;20133;-89
2023/06/04 21:57:18;;;;;;;1.05;1.02;;;;;;;;;;7399678;19;20216;-90
2023/06/04 21:59:45;;;;;;;0.60;0.60;;;;;;;;;;7396571;19;20121;-89
2023/06/04 22:02:12;;;;;;;0.70;0.70;;;;;;;;;;7392289;19;20149;-89
2023/06/04 22:04:38;;;;;;;0.75;0.75;;;;;;;;;;7390995;19;20489;-90
2023/06/04 22:07:05;;;;;;;0.93;0.93;;;;;;;;;;7395380;19;20141;-90
2023/06/04 22:09:32;;;;;;;0.80;0.80;;;;;;;;;;7391700;19;20204;-90
2023/06/04 22:11:59;;;;;;;0.80;0.80;;;;;;;;;;7395157;19;20161;-90
2023/06/04 22:14:30;;;;;;;1.17;0.90;;;;;;;;;;7395732;19;20129;-90
2023/06/04 22:16:57;;;;;;;0.93;0.93;;;;;;;;;;7395275;19;20621;-90
2023/06/04 22:19:23;;;;;;;3.40;0.98;;;;;;;;;;7397098;19;20151;-90
2023/06/04 22:21:50;;;;;;;0.70;0.70;;;;;;;;;;7394586;19;20152;-90
2023/06/04 22:24:17;;;;;;;0.85;0.70;;;;;;;;;;7397630;19;20139;-91
2023/06/04 22:26:44;;;;;;;0.93;0.93;;;;;;;;;;7399269;19;20159;-90
2023/06/04 22:29:10;;;;;;;0.70;0.60;;;;;;;;;;7398234;19;20147;-91
2023/06/04 22:31:37;;;;;;;0.65;0.65;;;;;;;;;;7396880;19;20149;-91
2023/06/04 22:34:04;;;;;;;0.60;0.60;;;;;;;;;;7397112;19;20129;-91
2023/06/04 22:36:31;;;;;;;0.30;0.30;;;;;;;;;;7397813;19;20589;-91
2023/06/04 22:38:58;;;;;;;1.35;1.20;;;;;;;;;;7398568;19;20141;-91
2023/06/04 22:41:26;;;;;;;0.57;0.57;;;;;;;;;;7395819;19;20145;-89
2023/06/04 22:43:53;;;;;;;0.70;0.70;;;;;;;;;;7394733;19;20146;-90
2023/06/04 22:46:19;;;;;;;0.70;0.70;;;;;;;;;;7398594;19;20161;-89
2023/06/04 22:48:46;;;;;;;0.82;0.82;;;;;;;;;;7395646;19;20208;-89
2023/06/04 22:51:16;;;;;;;0.50;0.50;;;;;;;;;;7394311;19;20172;-89
2023/06/04 22:53:44;;;;;;;0.60;0.60;;;;;;;;;;7393740;19;20141;-90
2023/06/04 22:56:11;;;;;;;0.77;0.77;;;;;;;;;;7395947;19;20226;-91
2023/06/04 22:58:38;;;;;;;0.70;0.70;;;;;;;;;;7394815;19;21455;-90
2023/06/04 23:01:05;;;;;;;0.50;0.50;;;;;;;;;;7396134;19;20152;-91
2023/06/04 23:03:32;;;;;;;0.95;0.88;;;;;;;;;;7395929;19;20563;-91
2023/06/04 23:05:59;;;;;;;0.50;0.50;;;;;;;;;;7395602;19;20700;-91
2023/06/04 23:08:26;;;;;;;0.80;0.80;;;;;;;;;;7396647;19;20141;-91
2023/06/04 23:10:53;;;;;;;1.02;0.93;;;;;;;;;;7396294;19;20220;-91
2023/06/04 23:13:19;;;;;;;2.67;1.15;;;;;;;;;;7394662;19;20196;-91
2023/06/04 23:15:46;;;;;;;0.63;0.63;;;;;;;;;;7393258;19;20144;-91
2023/06/04 23:18:13;;;;;;;0.85;0.85;;;;;;;;;;7396509;19;20484;-90
2023/06/04 23:20:40;;;;;;;0.75;0.75;;;;;;;;;;7394434;19;20235;-91
2023/06/04 23:23:06;;;;;;;0.40;0.40;;;;;;;;;;7395640;19;20493;-90
2023/06/04 23:25:33;;;;;;;0.75;0.75;;;;;;;;;;7395853;19;20125;-90
2023/06/04 23:28:00;;;;;;;1.30;0.90;;;;;;;;;;7391721;19;20208;-89
2023/06/04 23:30:27;;;;;;;1.33;1.23;;;;;;;;;;7394662;19;20229;-90
2023/06/04 23:32:53;;;;;;;0.75;0.75;;;;;;;;;;7395598;19;20155;-91
2023/06/04 23:35:20;;;;;;;1.42;1.10;;;;;;;;;;7394185;19;20161;-90
2023/06/04 23:37:47;;;;;;;1.05;1.05;;;;;;;;;;7394533;19;20200;-89
2023/06/04 23:40:14;;;;;;;0.60;0.60;;;;;;;;;;7394964;19;20149;-90
2023/06/04 23:42:40;;;;;;;0.55;0.55;;;;;;;;;;7395044;19;20149;-90
2023/06/04 23:45:07;;;;;;;0.40;0.40;;;;;;;;;;7392551;19;20137;-89
2023/06/04 23:47:34;;;;;;;0.70;0.70;;;;;;;;;;7395452;19;20527;-90
2023/06/04 23:50:01;;;;;;;0.82;0.82;;;;;;;;;;7396206;19;20133;-90
2023/06/04 23:52:28;;;;;;;0.98;0.98;;;;;;;;;;7394411;19;20600;-89
2023/06/04 23:54:54;;;;;;;0.90;0.90;;;;;;;;;;7393521;19;20713;-90
2023/06/04 23:57:21;;;;;;;0.68;0.68;;;;;;;;;;7393757;19;20129;-89
2023/06/04 23:59:48;;;;;;;0.45;0.45;;;;;;;;;;7393521;19;20708;-89
